Time;durP1;ratioP1;P1;durP2;ratioP2;P2;SDS_P1;SDS_P2;PMS_P1;PMS_P2;Temp;Humidity;BMP_temperature;BMP_pressure;BME280_temperature;BME280_humidity;BME280_pressure;Samples;Min_cycle;Max_cycle;Signal;HPM_P1;HPM_P2
2021/06/11 00:00:50;;;;;;;7.41;2.39;;;;;;;15.41;81.01;99583.34;2020226;78;28840;-77
2021/06/11 00:03:53;;;;;;;4.86;2.25;;;;;;;15.39;81.30;99581.66;2017576;80;20708;-77
2021/06/11 00:06:56;;;;;;;4.34;2.51;;;;;;;15.39;81.34;99594.75;2017305;80;20180;-77
2021/06/11 00:09:58;;;;;;;5.54;2.35;;;;;;;15.34;81.42;99597.47;2017108;80;20676;-76
2021/06/11 00:13:01;;;;;;;4.76;2.58;;;;;;;15.32;81.46;99596.63;2016693;80;20175;-77
2021/06/11 00:16:04;;;;;;;2.34;2.17;;;;;;;15.29;81.35;99595.84;2016974;77;25830;-77
2021/06/11 00:19:07;;;;;;;2.80;2.60;;;;;;;15.25;81.66;99592.41;2016926;80;20180;-76
2021/06/11 00:22:10;;;;;;;3.60;2.45;;;;;;;15.20;82.02;99593.41;2017421;80;20239;-77
2021/06/11 00:25:18;;;;;;;3.11;2.59;;;;;;;15.13;82.32;99597.91;2017743;80;20160;-77
2021/06/11 00:28:21;;;;;;;6.07;2.81;;;;;;;15.14;82.70;99602.25;2016841;80;20196;-77
2021/06/11 00:31:23;;;;;;;5.54;3.06;;;;;;;15.10;82.68;99590.13;2016548;77;20237;-77
2021/06/11 00:34:26;;;;;;;4.69;2.60;;;;;;;15.06;82.78;99591.91;2017511;80;20266;-76
2021/06/11 00:37:29;;;;;;;3.03;2.75;;;;;;;15.05;82.93;99599.78;2022198;80;20190;-76
2021/06/11 00:40:32;;;;;;;2.79;2.53;;;;;;;14.99;82.92;99598.16;2022934;80;20236;-76
2021/06/11 00:43:34;;;;;;;3.44;3.21;;;;;;;14.88;83.03;99597.47;2021924;80;20249;-76
2021/06/11 00:46:37;;;;;;;3.58;2.41;;;;;;;14.88;83.31;99597.47;2021484;80;26271;-76
2021/06/11 00:49:40;;;;;;;5.81;2.75;;;;;;;14.93;83.14;99600.03;2022986;80;20204;-76
2021/06/11 00:52:42;;;;;;;2.83;2.63;;;;;;;14.85;82.89;99607.16;2022052;80;20166;-76
2021/06/11 00:55:45;;;;;;;4.29;2.84;;;;;;;14.81;83.24;99609.81;2022526;80;20186;-75
2021/06/11 00:58:48;;;;;;;2.59;2.35;;;;;;;14.82;83.18;99611.53;2022408;80;20844;-76
2021/06/11 01:01:50;;;;;;;3.50;2.63;;;;;;;14.74;83.04;99607.34;2024034;77;21019;-76
2021/06/11 01:04:53;;;;;;;3.76;2.96;;;;;;;14.72;83.36;99614.34;2027798;80;20715;-76
2021/06/11 01:07:56;;;;;;;5.49;2.51;;;;;;;14.67;83.55;99608.34;2027488;80;20223;-77
2021/06/11 01:10:59;;;;;;;6.74;2.99;;;;;;;14.65;83.80;99607.50;2027667;79;20225;-76
2021/06/11 01:14:06;;;;;;;6.22;2.84;;;;;;;14.58;83.87;99603.28;2027384;80;20923;-76
2021/06/11 01:17:10;;;;;;;3.15;2.95;;;;;;;14.58;84.40;99601.53;2026532;77;23790;-75
2021/06/11 01:20:14;;;;;;;3.47;2.97;;;;;;;14.61;84.14;99598.84;2027374;80;20194;-76
2021/06/11 01:23:59;;;;;;;3.81;3.00;;;;;;;14.57;83.84;99610.25;2027764;80;20175;-75
2021/06/11 01:27:02;;;;;;;3.22;2.95;;;;;;;14.52;83.96;99605.09;2027120;80;20175;-76
2021/06/11 01:30:16;;;;;;;3.66;3.11;;;;;;;14.52;84.17;99607.69;2027420;80;20182;-76
2021/06/11 01:33:21;;;;;;;3.76;3.06;;;;;;;14.49;84.18;99604.28;2022105;78;21643;-76
2021/06/11 01:36:27;;;;;;;4.39;3.11;;;;;;;14.46;84.13;99606.94;2021801;80;20720;-76
2021/06/11 01:39:32;;;;;;;3.01;2.81;;;;;;;14.39;84.10;99605.31;2022073;80;20179;-75
2021/06/11 01:42:38;;;;;;;4.19;2.80;;;;;;;14.33;84.26;99603.63;2022140;80;20721;-76
2021/06/11 01:45:41;;;;;;;3.60;3.26;;;;;;;14.31;84.42;99609.78;2021534;77;21636;-76
2021/06/11 01:48:47;;;;;;;4.29;3.25;;;;;;;14.29;84.66;99604.59;2027635;80;20186;-76
2021/06/11 01:51:50;;;;;;;4.31;3.71;;;;;;;14.25;84.77;99605.53;2027125;79;20240;-77
2021/06/11 01:54:53;;;;;;;3.42;3.14;;;;;;;14.21;84.98;99606.47;2027390;80;20206;-76
2021/06/11 01:57:58;;;;;;;3.44;3.14;;;;;;;14.21;84.97;99609.06;2026878;80;20174;-76
2021/06/11 02:01:01;;;;;;;7.19;3.49;;;;;;;14.18;84.80;99607.38;2026220;76;24846;-76
2021/06/11 02:04:05;;;;;;;3.53;3.30;;;;;;;14.17;85.00;99596.94;2029469;79;20203;-76
2021/06/11 02:07:08;;;;;;;4.88;4.41;;;;;;;14.16;85.25;99605.66;2029930;79;20175;-76
2021/06/11 02:10:12;;;;;;;3.85;3.34;;;;;;;14.14;85.23;99602.22;2029209;79;20166;-75
2021/06/11 02:13:15;;;;;;;3.70;3.50;;;;;;;14.08;85.14;99604.91;2028177;79;20227;-76
2021/06/11 02:16:20;;;;;;;4.14;3.64;;;;;;;14.05;85.39;99608.44;2028497;77;21467;-76
2021/06/11 02:19:23;;;;;;;3.95;3.38;;;;;;;14.05;85.52;99607.59;2030027;79;20210;-76
2021/06/11 02:22:26;;;;;;;4.26;3.67;;;;;;;14.04;85.53;99604.13;2029816;79;20214;-75
2021/06/11 02:25:28;;;;;;;4.31;3.53;;;;;;;14.05;85.48;99610.19;2029170;79;20198;-76
2021/06/11 02:28:31;;;;;;;4.14;3.55;;;;;;;13.98;85.33;99605.94;2029414;79;20171;-76
2021/06/11 02:31:34;;;;;;;6.04;3.71;;;;;;;13.94;85.42;99606.88;2028531;77;20186;-77
2021/06/11 02:34:37;;;;;;;4.03;3.47;;;;;;;13.92;85.54;99599.06;2029499;79;20268;-75
2021/06/11 02:37:40;;;;;;;5.19;3.47;;;;;;;13.89;85.83;99602.59;2029859;79;20190;-76
2021/06/11 02:40:43;;;;;;;5.11;3.85;;;;;;;13.87;86.00;99603.50;2029365;79;20200;-76
2021/06/11 02:43:48;;;;;;;6.05;3.69;;;;;;;13.85;86.19;99603.53;2029713;79;20193;-76
2021/06/11 02:46:54;;;;;;;6.16;3.83;;;;;;;13.82;86.14;99603.56;2030337;76;22229;-75
2021/06/11 02:50:01;;;;;;;4.20;3.81;;;;;;;13.79;86.06;99600.97;2029073;79;20296;-76
2021/06/11 02:53:06;;;;;;;4.36;3.72;;;;;;;13.77;86.08;99602.75;2029705;79;20666;-75
2021/06/11 02:56:14;;;;;;;4.50;4.07;;;;;;;13.75;86.07;99598.44;2029702;79;20198;-75
2021/06/11 02:59:20;;;;;;;5.17;4.30;;;;;;;13.72;85.92;99593.28;2030190;79;20202;-76
2021/06/11 03:02:33;;;;;;;5.16;3.83;;;;;;;13.69;85.88;99593.31;2028414;76;28918;-76
2021/06/11 03:05:36;;;;;;;4.72;4.13;;;;;;;13.65;86.11;99596.84;2027342;79;20804;-76
2021/06/11 03:08:42;;;;;;;4.54;4.03;;;;;;;13.63;86.28;99599.47;2028600;79;20230;-75
2021/06/11 03:11:46;;;;;;;6.69;4.65;;;;;;;13.61;86.56;99596.00;2028293;79;20199;-76
2021/06/11 03:14:51;;;;;;;4.99;4.06;;;;;;;13.57;86.68;99594.34;2027918;79;20359;-76
2021/06/11 03:17:58;;;;;;;4.49;4.10;;;;;;;13.55;86.36;99596.09;2027254;76;20582;-76
2021/06/11 03:21:16;;;;;;;6.70;4.96;;;;;;;13.50;86.29;99590.94;2027426;79;20178;-76
2021/06/11 03:24:25;;;;;;;5.94;3.94;;;;;;;13.52;86.31;99597.00;2028114;79;20808;-75
2021/06/11 03:27:37;;;;;;;5.46;3.83;;;;;;;13.50;86.21;99590.94;2027530;79;20251;-75
2021/06/11 03:30:48;;;;;;;4.38;3.79;;;;;;;13.49;86.19;99599.66;2027326;77;20858;-76
2021/06/11 03:33:55;;;;;;;4.01;3.65;;;;;;;13.49;86.26;99597.06;2028283;79;20198;-76
2021/06/11 03:37:01;;;;;;;4.70;3.49;;;;;;;13.50;86.32;99600.53;2028119;79;20721;-76
2021/06/11 03:40:11;;;;;;;4.28;3.81;;;;;;;13.49;86.24;99606.63;2028210;79;20170;-76
2021/06/11 03:43:15;;;;;;;4.03;3.69;;;;;;;13.47;86.15;99616.22;2023349;79;20192;-76
2021/06/11 03:46:19;;;;;;;4.32;4.01;;;;;;;13.37;86.04;99615.47;2027156;77;21692;-76
2021/06/11 03:49:23;;;;;;;4.36;3.92;;;;;;;13.32;86.31;99619.88;2027567;79;20220;-76
2021/06/11 03:52:30;;;;;;;3.95;3.63;;;;;;;13.33;86.66;99620.75;2027605;79;20622;-76
2021/06/11 03:55:41;;;;;;;3.69;3.40;;;;;;;13.32;86.91;99621.63;2027547;79;20204;-75
2021/06/11 03:58:47;;;;;;;4.20;3.47;;;;;;;13.34;86.96;99618.09;2027292;79;20163;-76
2021/06/11 04:01:52;;;;;;;3.36;3.08;;;;;;;13.35;86.95;99621.59;2026523;76;20343;-75
2021/06/11 04:04:54;;;;;;;4.28;3.89;;;;;;;13.36;87.01;99624.16;2027759;79;20280;-76
2021/06/11 04:07:57;;;;;;;4.88;3.89;;;;;;;13.39;86.93;99618.03;2027732;79;21028;-77
2021/06/11 04:11:02;;;;;;;8.32;3.56;;;;;;;13.43;87.00;99614.50;2027588;79;20178;-76
2021/06/11 04:14:07;;;;;;;4.68;3.71;;;;;;;13.46;87.04;99622.28;2027550;79;20315;-76
2021/06/11 04:17:12;;;;;;;3.80;3.42;;;;;;;13.52;87.18;99619.63;2026599;76;23446;-76
2021/06/11 04:20:20;;;;;;;5.36;3.01;;;;;;;13.58;87.20;99623.00;2027234;79;20190;-76
2021/06/11 04:23:27;;;;;;;7.13;3.71;;;;;;;13.63;86.99;99624.69;2028253;79;20203;-76
2021/06/11 04:26:34;;;;;;;6.22;3.85;;;;;;;13.70;86.93;99629.81;2027160;79;20253;-76
2021/06/11 04:29:38;;;;;;;3.95;3.33;;;;;;;13.79;86.94;99632.28;2027895;79;20647;-76
2021/06/11 04:32:41;;;;;;;5.57;3.55;;;;;;;13.80;86.86;99627.94;2027432;78;20310;-76
2021/06/11 04:35:44;;;;;;;3.65;3.38;;;;;;;13.88;86.70;99634.78;2027332;79;20167;-76
2021/06/11 04:38:59;;;;;;;5.06;3.50;;;;;;;13.97;86.53;99632.94;2027143;79;20234;-76
2021/06/11 04:42:02;;;;;;;3.84;3.40;;;;;;;14.10;86.20;99639.72;2027853;79;20221;-76
2021/06/11 04:45:06;;;;;;;5.21;3.63;;;;;;;14.22;85.78;99639.53;2026734;79;20203;-76
2021/06/11 04:48:09;;;;;;;6.66;3.40;;;;;;;14.33;85.56;99637.59;2027927;76;20186;-76
2021/06/11 04:51:13;;;;;;;6.49;3.61;;;;;;;14.46;85.14;99648.75;2027583;79;20223;-76
2021/06/11 04:54:15;;;;;;;3.45;3.15;;;;;;;14.59;84.66;99649.44;2028311;79;20246;-77
2021/06/11 04:57:18;;;;;;;5.76;3.17;;;;;;;14.74;84.22;99646.56;2027393;79;20331;-76
2021/06/11 05:00:21;;;;;;;3.51;2.91;;;;;;;14.90;83.57;99652.38;2026460;77;33005;-75
2021/06/11 05:03:24;;;;;;;3.92;3.56;;;;;;;15.06;83.24;99656.44;2027263;79;20175;-76
2021/06/11 05:06:26;;;;;;;5.66;3.20;;;;;;;15.25;82.67;99654.31;2028241;80;20607;-76
2021/06/11 05:09:29;;;;;;;6.19;3.00;;;;;;;15.48;81.82;99648.66;2028362;80;20195;-76
2021/06/11 05:12:32;;;;;;;4.97;3.29;;;;;;;15.82;80.84;99648.88;2028516;79;20251;-76
2021/06/11 05:15:35;;;;;;;4.60;3.25;;;;;;;16.17;79.49;99653.31;2027194;79;20741;-76
2021/06/11 05:18:38;;;;;;;3.42;2.71;;;;;;;16.43;78.08;99650.06;2027683;80;20212;-76
2021/06/11 05:21:41;;;;;;;3.70;3.40;;;;;;;16.63;77.53;99643.44;2028370;80;20957;-76
2021/06/11 05:24:43;;;;;;;3.94;3.08;;;;;;;16.86;77.08;99648.13;2028515;79;20739;-76
2021/06/11 05:27:46;;;;;;;4.64;2.69;;;;;;;17.16;75.91;99649.09;2027583;80;20751;-76
2021/06/11 05:30:49;;;;;;;4.09;2.71;;;;;;;17.51;74.13;99639.38;2026259;77;25753;-76
2021/06/11 05:33:53;;;;;;;3.95;2.78;;;;;;;17.91;72.64;99644.34;2025741;80;20735;-76
2021/06/11 05:36:56;;;;;;;5.65;3.11;;;;;;;18.32;70.88;99643.09;2025788;80;20199;-76
2021/06/11 05:39:58;;;;;;;6.11;2.95;;;;;;;18.66;70.04;99645.47;2026639;79;20214;-76
2021/06/11 05:43:02;;;;;;;5.50;2.79;;;;;;;18.92;69.96;99644.63;2028060;79;20229;-76
2021/06/11 05:46:05;;;;;;;5.59;3.64;;;;;;;19.10;69.78;99645.75;2026918;76;20212;-76
2021/06/11 05:49:08;;;;;;;5.06;3.90;;;;;;;19.28;68.46;99642.47;2027008;79;20211;-76
2021/06/11 05:52:10;;;;;;;6.86;3.35;;;;;;;19.56;68.18;99639.69;2027990;79;20195;-76
2021/06/11 05:55:14;;;;;;;8.93;3.46;;;;;;;19.87;67.27;99642.03;2027415;79;20214;-77
2021/06/11 05:58:17;;;;;;;4.69;2.94;;;;;;;20.28;65.53;99639.56;2028789;79;20174;-76
2021/06/11 06:01:20;;;;;;;8.21;3.59;;;;;;;20.62;63.58;99644.34;2030317;76;20195;-77
2021/06/11 06:04:23;;;;;;;4.84;3.42;;;;;;;20.96;62.63;99642.94;2031458;79;20171;-77
2021/06/11 06:07:25;;;;;;;8.55;3.85;;;;;;;21.27;61.34;99647.78;2028967;79;20208;-77
2021/06/11 06:10:28;;;;;;;8.73;3.92;;;;;;;21.61;60.05;99644.50;2029273;79;20224;-77
2021/06/11 06:13:31;;;;;;;9.34;3.34;;;;;;;22.01;59.59;99643.50;2029210;79;20212;-77
2021/06/11 06:16:33;;;;;;;5.46;3.50;;;;;;;22.31;58.13;99644.72;2029411;77;20253;-77
2021/06/11 06:19:37;;;;;;;4.05;3.50;;;;;;;22.61;57.29;99641.50;2029983;79;20174;-76
2021/06/11 06:22:41;;;;;;;4.19;3.14;;;;;;;22.93;56.72;99647.84;2025462;79;20178;-76
2021/06/11 06:25:44;;;;;;;6.07;3.03;;;;;;;23.33;56.01;99646.63;2029183;79;20702;-75
2021/06/11 06:28:46;;;;;;;6.44;3.64;;;;;;;23.55;54.30;99653.47;2030134;79;20163;-76
2021/06/11 06:31:49;;;;;;;8.26;4.45;;;;;;;23.77;53.94;99654.06;2028959;76;21486;-77
2021/06/11 06:34:51;;;;;;;9.26;3.36;;;;;;;23.99;53.01;99646.63;2029655;79;20178;-77
2021/06/11 06:37:54;;;;;;;10.26;3.97;;;;;;;24.10;52.35;99649.56;2029772;79;20483;-78
2021/06/11 06:41:00;;;;;;;6.93;4.84;;;;;;;24.17;52.04;99652.72;2029897;79;20188;-77
2021/06/11 06:44:04;;;;;;;11.99;5.40;;;;;;;24.34;52.11;99651.78;2027766;79;20250;-77
2021/06/11 06:47:08;;;;;;;20.95;8.55;;;;;;;24.59;52.04;99646.78;2030103;77;20710;-77
2021/06/11 06:50:17;;;;;;;17.60;8.14;;;;;;;24.73;50.58;99646.00;2032506;79;20204;-82
2021/06/11 06:53:20;;;;;;;15.23;7.45;;;;;;;24.95;50.71;99646.41;2030893;79;20170;-78
2021/06/11 06:56:25;;;;;;;17.31;6.51;;;;;;;25.15;49.89;99649.75;2029173;79;20170;-76
2021/06/11 06:59:28;;;;;;;12.85;6.06;;;;;;;25.28;48.42;99642.72;2028591;79;20162;-77
2021/06/11 07:02:35;;;;;;;11.31;5.71;;;;;;;25.42;47.86;99639.22;2034268;77;21321;-82
2021/06/11 07:05:38;;;;;;;12.66;5.20;;;;;;;25.63;48.12;99647.69;2042944;79;20188;-79
2021/06/11 07:08:41;;;;;;;12.70;4.86;;;;;;;25.92;47.33;99643.22;2038822;79;20642;-79
2021/06/11 07:11:47;;;;;;;12.25;4.84;;;;;;;26.16;45.95;99646.97;2031729;79;20286;-78
2021/06/11 07:14:50;;;;;;;11.74;5.00;;;;;;;26.32;46.28;99639.72;2032822;79;20762;-77
2021/06/11 07:17:57;;;;;;;8.30;3.84;;;;;;;26.47;45.32;99638.75;2028392;77;25650;-76
2021/06/11 07:21:00;;;;;;;12.64;4.00;;;;;;;26.61;44.97;99635.16;2028726;79;20202;-78
2021/06/11 07:24:03;;;;;;;9.45;3.38;;;;;;;26.74;45.62;99628.03;2028594;79;20308;-77
2021/06/11 07:27:06;;;;;;;5.84;3.60;;;;;;;26.76;45.51;99622.63;2028661;79;20190;-79
2021/06/11 07:30:10;;;;;;;10.93;2.36;;;;;;;26.84;46.40;99633.63;2028548;79;20272;-78
2021/06/11 07:33:13;;;;;;;9.13;2.64;;;;;;;26.94;43.95;99634.72;2029079;77;36939;-77
2021/06/11 07:36:15;;;;;;;4.85;2.55;;;;;;;26.93;42.97;99634.78;2028518;79;20246;-77
2021/06/11 07:39:18;;;;;;;7.13;2.10;;;;;;;27.15;43.71;99648.41;2029215;79;20707;-76
2021/06/11 07:42:21;;;;;;;5.41;2.21;;;;;;;27.22;41.86;99643.50;2028052;79;20563;-77
2021/06/11 07:45:24;;;;;;;2.70;1.31;;;;;;;27.45;42.11;99637.41;2027671;76;21541;-76
2021/06/11 07:48:26;;;;;;;3.76;1.13;;;;;;;27.58;41.06;99634.75;2027079;79;20666;-85
2021/06/11 07:51:29;;;;;;;5.32;1.33;;;;;;;27.75;39.79;99633.59;2028269;79;20213;-77
2021/06/11 07:54:32;;;;;;;1.51;0.93;;;;;;;27.84;40.93;99635.63;2028315;79;20224;-77
2021/06/11 07:57:35;;;;;;;2.34;1.09;;;;;;;27.90;40.27;99630.69;2028748;79;20174;-77
2021/06/11 08:00:37;;;;;;;3.42;1.08;;;;;;;27.93;40.22;99634.94;2027164;77;22978;-77
2021/06/11 08:03:40;;;;;;;2.08;0.90;;;;;;;28.05;40.36;99636.72;2029015;79;20174;-77
2021/06/11 08:06:44;;;;;;;4.76;0.95;;;;;;;28.11;39.70;99633.59;2028512;79;20328;-76
2021/06/11 08:09:47;;;;;;;3.19;1.05;;;;;;;28.14;40.06;99627.19;2027473;79;20297;-76
2021/06/11 08:12:50;;;;;;;4.96;0.90;;;;;;;28.32;40.35;99623.19;2027783;79;20188;-76
2021/06/11 08:15:53;;;;;;;3.54;0.99;;;;;;;28.47;39.59;99624.72;2026959;77;27287;-76
2021/06/11 08:18:56;;;;;;;2.92;0.90;;;;;;;28.57;38.80;99625.75;2027031;79;20178;-75
2021/06/11 08:21:58;;;;;;;7.24;1.00;;;;;;;28.68;38.94;99622.25;2027492;79;20188;-76
2021/06/11 08:25:01;;;;;;;3.64;1.08;;;;;;;28.58;37.26;99627.47;2027962;79;20196;-78
2021/06/11 08:28:04;;;;;;;4.43;1.20;;;;;;;28.54;38.10;99628.63;2027749;79;20184;-77
2021/06/11 08:31:08;;;;;;;2.81;0.99;;;;;;;28.75;37.62;99622.66;2025951;77;25501;-77
2021/06/11 08:34:11;;;;;;;3.81;1.25;;;;;;;28.77;37.36;99629.59;2027824;79;20170;-77
2021/06/11 08:37:13;;;;;;;3.53;1.00;;;;;;;28.70;36.13;99625.66;2028717;79;20264;-76
2021/06/11 08:40:16;;;;;;;5.74;1.36;;;;;;;28.95;37.88;99630.03;2027250;79;20302;-76
2021/06/11 08:43:20;;;;;;;7.38;0.95;;;;;;;29.09;37.73;99629.00;2026745;79;20174;-77
2021/06/11 08:46:23;;;;;;;2.42;1.30;;;;;;;29.24;37.79;99632.28;2026119;77;23170;-76
2021/06/11 08:49:26;;;;;;;3.60;1.17;;;;;;;29.41;36.21;99626.47;2026832;79;20291;-77
2021/06/11 08:52:30;;;;;;;7.13;1.11;;;;;;;29.44;36.47;99621.75;2023303;79;20676;-76
2021/06/11 08:55:33;;;;;;;3.28;1.41;;;;;;;29.55;36.94;99623.59;2027853;79;21058;-77
2021/06/11 08:58:39;;;;;;;4.76;1.04;;;;;;;29.56;35.94;99627.97;2027613;79;20216;-76
2021/06/11 09:01:43;;;;;;;5.54;1.16;;;;;;;29.58;36.03;99626.00;2025760;79;21164;-77
2021/06/11 09:04:51;;;;;;;1.99;0.89;;;;;;;29.86;37.70;99618.47;2027935;80;20194;-77
2021/06/11 09:08:11;;;;;;;3.54;1.10;;;;;;;29.96;37.75;99622.94;2026746;79;20170;-77
2021/06/11 09:11:25;;;;;;;2.95;1.06;;;;;;;29.84;34.35;99632.00;2026813;80;20194;-77
2021/06/11 09:14:29;;;;;;;3.91;0.94;;;;;;;29.62;34.57;99624.78;2027656;79;20194;-77
2021/06/11 09:17:52;;;;;;;2.54;1.21;;;;;;;29.89;37.45;99627.09;2026597;77;29790;-77
2021/06/11 09:20:56;;;;;;;1.36;0.95;;;;;;;29.97;37.05;99627.31;2028163;79;20195;-76
2021/06/11 09:27:19;;;;;;;2.33;0.80;;;;;;;29.90;34.76;99620.78;2028087;79;20685;-76
2021/06/11 09:30:25;;;;;;;2.96;1.09;;;;;;;30.10;35.83;99619.19;2026683;77;27904;-76
2021/06/11 09:33:28;;;;;;;2.17;0.82;;;;;;;30.05;34.56;99627.59;2027565;79;20170;-76
2021/06/11 09:36:31;;;;;;;3.10;0.99;;;;;;;30.00;33.54;99628.94;2027997;79;20210;-76
2021/06/11 09:39:56;;;;;;;8.34;1.02;;;;;;;30.14;34.58;99630.50;2027956;79;20738;-75
2021/06/11 09:43:03;;;;;;;3.55;1.06;;;;;;;30.20;34.09;99624.66;2028172;79;20167;-76
2021/06/11 09:46:14;;;;;;;1.35;0.93;;;;;;;30.32;33.15;99631.66;2026982;79;20872;-76
2021/06/11 09:49:17;;;;;;;2.67;1.34;;;;;;;30.58;35.90;99621.47;2027556;79;20217;-76
2021/06/11 09:52:19;;;;;;;1.38;0.90;;;;;;;30.72;34.61;99625.72;2028148;79;20190;-76
2021/06/11 09:55:32;;;;;;;4.95;1.09;;;;;;;30.81;33.23;99615.06;2027649;79;20190;-76
2021/06/11 09:58:39;;;;;;;4.24;0.90;;;;;;;30.77;32.19;99618.13;2027967;79;20215;-85
2021/06/11 10:01:41;;;;;;;3.99;0.90;;;;;;;30.73;33.43;99614.88;2026605;77;29102;-77
2021/06/11 10:04:45;;;;;;;3.69;1.24;;;;;;;30.79;32.98;99616.16;2027919;79;20935;-78
2021/06/11 10:07:50;;;;;;;1.54;1.00;;;;;;;30.81;32.93;99620.41;2027791;79;20182;-77
2021/06/11 10:10:58;;;;;;;2.36;0.90;;;;;;;31.01;33.36;99617.88;2027559;79;20937;-77
2021/06/11 10:14:03;;;;;;;2.00;1.02;;;;;;;30.77;34.83;99613.63;2025555;79;20606;-77
2021/06/11 10:17:07;;;;;;;2.15;1.00;;;;;;;30.26;35.12;99614.28;2026172;77;23428;-77
2021/06/11 10:20:11;;;;;;;1.50;0.84;;;;;;;29.44;35.47;99615.50;2027479;79;20310;-78
2021/06/11 10:23:17;;;;;;;2.01;1.00;;;;;;;29.31;35.46;99612.97;2027508;79;20182;-78
2021/06/11 10:26:20;;;;;;;1.98;1.17;;;;;;;29.56;33.55;99611.06;2027764;79;20183;-78
2021/06/11 10:29:23;;;;;;;1.80;0.80;;;;;;;29.74;33.01;99606.91;2027955;79;20171;-77
2021/06/11 10:32:26;;;;;;;3.00;0.90;;;;;;;29.96;33.22;99604.19;2026905;77;21649;-77
2021/06/11 10:35:40;;;;;;;0.82;0.80;;;;;;;30.31;32.07;99612.06;2027824;79;20816;-77
2021/06/11 10:38:43;;;;;;;2.35;0.80;;;;;;;30.65;32.87;99604.75;2027772;79;20178;-77
2021/06/11 10:42:08;;;;;;;0.80;0.70;;;;;;;30.87;31.28;99602.94;2027414;79;20154;-78
2021/06/11 10:45:15;;;;;;;1.48;0.80;;;;;;;31.10;32.71;99614.41;2027101;79;20304;-77
2021/06/11 10:48:18;;;;;;;1.39;1.00;;;;;;;31.31;32.43;99599.16;2026458;77;21801;-78
2021/06/11 10:51:40;;;;;;;3.59;1.00;;;;;;;31.31;31.41;99601.84;2027916;79;20828;-76
2021/06/11 10:54:42;;;;;;;4.28;0.90;;;;;;;30.82;30.99;99607.84;2028075;79;20236;-79
2021/06/11 10:57:55;;;;;;;3.19;1.00;;;;;;;30.38;31.73;99604.38;2028184;79;20635;-77
2021/06/11 11:00:58;;;;;;;5.05;0.96;;;;;;;29.65;32.09;99602.31;2027686;77;20203;-77
2021/06/11 11:04:26;;;;;;;3.31;0.90;;;;;;;29.33;33.85;99600.31;2027518;79;20217;-76
2021/06/11 11:07:31;;;;;;;1.76;1.10;;;;;;;29.05;36.09;99600.75;2027860;79;20178;-77
2021/06/11 11:10:35;;;;;;;1.39;0.82;;;;;;;28.77;36.05;99600.19;2027958;79;20238;-77
2021/06/11 11:13:38;;;;;;;2.00;0.94;;;;;;;28.50;36.82;99595.09;2028060;79;20163;-77
2021/06/11 11:16:56;;;;;;;4.57;1.11;;;;;;;28.16;38.20;99607.41;2027247;77;20737;-76
2021/06/11 11:20:06;;;;;;;3.26;1.11;;;;;;;27.94;38.89;99594.78;2028245;79;20572;-77
2021/06/11 11:23:15;;;;;;;3.06;0.98;;;;;;;27.69;39.73;99594.84;2027849;79;20250;-76
2021/06/11 11:26:57;;;;;;;2.60;1.23;;;;;;;27.80;40.45;99594.91;2028062;79;20163;-77
2021/06/11 11:29:59;;;;;;;1.89;1.00;;;;;;;28.54;37.97;99585.88;2006709;80;20200;-77
2021/06/11 11:33:03;;;;;;;1.23;0.90;;;;;;;29.44;39.15;99584.28;2005771;78;23099;-78
2021/06/11 11:36:07;;;;;;;8.57;1.20;;;;;;;30.19;36.02;99588.13;2011092;80;20236;-78
2021/06/11 11:39:12;;;;;;;2.69;0.90;;;;;;;30.61;32.73;99581.00;2010705;80;20197;-78
2021/06/11 11:42:16;;;;;;;2.46;1.05;;;;;;;30.88;32.82;99583.19;2010441;80;20729;-77
2021/06/11 11:45:19;;;;;;;1.34;0.96;;;;;;;31.10;33.96;99580.38;2010953;80;20192;-77
2021/06/11 11:48:24;;;;;;;3.71;1.10;;;;;;;31.31;34.50;99580.38;2010943;77;26755;-81
2021/06/11 11:51:27;;;;;;;1.99;0.90;;;;;;;31.47;32.53;99575.38;2010580;80;20438;-76
2021/06/11 11:54:31;;;;;;;1.54;0.98;;;;;;;31.72;32.49;99576.75;2010591;80;20203;-76
2021/06/11 11:57:34;;;;;;;3.29;1.00;;;;;;;31.85;30.93;99577.34;2010675;80;20672;-75
2021/06/11 12:00:37;;;;;;;1.50;0.86;;;;;;;31.81;30.39;99575.94;2017881;77;22932;-76
2021/06/11 12:03:39;;;;;;;1.98;0.80;;;;;;;32.01;31.27;99573.28;2027122;79;20178;-75
2021/06/11 12:06:43;;;;;;;3.74;1.10;;;;;;;32.16;31.87;99569.22;2026736;79;20198;-73
2021/06/11 12:09:46;;;;;;;1.95;0.90;;;;;;;32.29;31.26;99568.94;2027817;79;20196;-74
2021/06/11 12:12:49;;;;;;;1.21;0.90;;;;;;;32.27;30.86;99565.56;2026511;79;20174;-74
2021/06/11 12:15:54;;;;;;;2.15;0.90;;;;;;;31.52;31.05;99569.59;2027252;77;24982;-70
2021/06/11 12:18:57;;;;;;;3.96;1.35;;;;;;;30.88;32.55;99570.66;2027356;79;20199;-70
2021/06/11 12:22:00;;;;;;;7.89;1.00;;;;;;;30.29;33.88;99570.28;2027192;79;20846;-72
2021/06/11 12:25:04;;;;;;;2.72;1.24;;;;;;;30.10;34.58;99570.13;2027483;79;20194;-72
2021/06/11 12:28:06;;;;;;;2.17;0.93;;;;;;;30.43;35.31;99558.44;2027630;79;20215;-72
2021/06/11 12:31:09;;;;;;;2.06;0.90;;;;;;;30.86;34.14;99555.66;2026619;76;20530;-72
2021/06/11 12:34:11;;;;;;;3.13;0.80;;;;;;;30.98;32.45;99546.56;2026647;79;20186;-72
2021/06/11 12:37:14;;;;;;;1.00;0.88;;;;;;;31.18;33.02;99545.72;2026951;79;20178;-72
2021/06/11 12:40:18;;;;;;;1.45;0.80;;;;;;;31.16;32.23;99541.44;2027043;79;20170;-72
2021/06/11 12:43:29;;;;;;;2.41;0.89;;;;;;;31.50;33.15;99545.56;2030613;79;20196;-72
2021/06/11 12:46:32;;;;;;;1.29;1.00;;;;;;;31.83;32.42;99531.00;2026210;77;48294;-73
2021/06/11 12:49:35;;;;;;;2.17;0.85;;;;;;;31.84;32.46;99530.00;2026832;79;20757;-70
2021/06/11 12:52:40;;;;;;;1.05;0.90;;;;;;;31.87;30.97;99539.63;2027135;79;20243;-70
2021/06/11 12:55:42;;;;;;;1.85;0.88;;;;;;;31.73;31.25;99531.94;2026442;80;20174;-70
2021/06/11 12:58:45;;;;;;;2.80;0.80;;;;;;;31.78;33.18;99533.25;2028105;79;20174;-70
2021/06/11 13:01:48;;;;;;;5.88;0.90;;;;;;;31.21;31.79;99532.00;2025752;76;25328;-72
2021/06/11 13:04:50;;;;;;;1.70;0.71;;;;;;;30.73;32.43;99536.25;2026670;79;20200;-78
2021/06/11 13:07:54;;;;;;;2.22;0.70;;;;;;;30.85;32.86;99530.66;2027230;80;20700;-72
2021/06/11 13:10:57;;;;;;;3.10;0.77;;;;;;;31.07;31.66;99527.00;2026767;80;20549;-73
2021/06/11 13:14:00;;;;;;;2.35;0.70;;;;;;;31.13;32.21;99523.78;2027025;80;20190;-73
2021/06/11 13:17:03;;;;;;;1.75;0.70;;;;;;;31.40;32.37;99525.03;2026212;78;22640;-72
2021/06/11 13:20:06;;;;;;;0.70;0.60;;;;;;;31.70;32.08;99524.13;2026996;80;20158;-71
2021/06/11 13:23:09;;;;;;;2.06;0.70;;;;;;;31.85;31.27;99518.25;2025888;80;20225;-71
2021/06/11 13:26:12;;;;;;;1.44;0.79;;;;;;;31.93;31.17;99519.41;2026915;79;20163;-71
2021/06/11 13:29:14;;;;;;;1.49;0.68;;;;;;;31.98;31.24;99522.53;2026927;80;20259;-72
2021/06/11 13:32:17;;;;;;;4.19;0.70;;;;;;;31.80;30.15;99520.53;2023414;76;21132;-71
2021/06/11 13:35:20;;;;;;;2.22;0.66;;;;;;;31.93;31.01;99525.63;2024242;80;20282;-71
2021/06/11 13:38:22;;;;;;;2.41;0.80;;;;;;;31.83;29.81;99511.34;2024926;80;20258;-72
2021/06/11 13:41:27;;;;;;;3.70;0.70;;;;;;;31.68;30.65;99513.53;2024121;80;20186;-72
2021/06/11 13:44:29;;;;;;;4.11;0.70;;;;;;;31.81;32.20;99511.47;2122658;69;20218;-72
2021/06/11 13:47:32;;;;;;;3.67;0.80;;;;;;;32.12;31.27;99509.50;2021997;78;33349;-71
2021/06/11 13:50:35;;;;;;;3.25;0.66;;;;;;;32.32;31.29;99506.88;2020844;80;20358;-72
2021/06/11 13:53:38;;;;;;;3.20;0.70;;;;;;;32.56;31.61;99515.31;2023341;80;20196;-71
2021/06/11 13:56:43;;;;;;;2.26;0.70;;;;;;;32.43;31.29;99504.88;2026596;80;20254;-71
2021/06/11 13:59:47;;;;;;;5.04;0.70;;;;;;;32.34;29.87;99504.88;2026188;79;20195;-76
2021/06/11 14:02:49;;;;;;;4.88;0.70;;;;;;;32.14;29.27;99512.09;2030436;77;20634;-77
2021/06/11 14:05:53;;;;;;;2.26;0.61;;;;;;;31.96;29.36;99501.19;2032649;79;20692;-76
2021/06/11 14:08:55;;;;;;;1.31;0.60;;;;;;;31.92;29.69;99504.25;2032710;79;20760;-78
2021/06/11 14:11:58;;;;;;;0.61;0.52;;;;;;;32.23;30.93;99502.31;2032370;79;20282;-76
2021/06/11 14:15:02;;;;;;;1.04;0.56;;;;;;;32.42;29.85;99507.69;2032843;79;20217;-78
2021/06/11 14:18:05;;;;;;;3.92;0.94;;;;;;;32.46;28.90;99509.09;2026474;78;28268;-78
2021/06/11 14:21:07;;;;;;;2.35;0.57;;;;;;;32.38;28.48;99501.75;2027015;79;20191;-77
2021/06/11 14:24:11;;;;;;;3.84;0.77;;;;;;;32.23;29.68;99505.84;2026620;79;20741;-76
2021/06/11 14:27:16;;;;;;;2.06;0.60;;;;;;;32.14;28.90;99498.66;2026357;79;20979;-78
2021/06/11 14:30:19;;;;;;;0.63;0.50;;;;;;;32.17;30.90;99493.84;2026476;79;21372;-77
2021/06/11 14:33:22;;;;;;;3.05;0.71;;;;;;;31.86;30.64;99498.47;2032513;79;20215;-78